sensor_id;sensor_type;location;lat;lon;timestamp;temperature;humidity
13245;DHT22;6689;53.400;12.486;2023-08-12T00:00:59;19.00;99.90
13245;DHT22;6689;53.400;12.486;2023-08-12T00:03:27;19.00;99.90
13245;DHT22;6689;53.400;12.486;2023-08-12T00:05:55;19.00;99.90
13245;DHT22;6689;53.400;12.486;2023-08-12T00:08:22;18.90;99.90
13245;DHT22;6689;53.400;12.486;2023-08-12T00:10:56;19.00;99.90
13245;DHT22;6689;53.400;12.486;2023-08-12T00:13:23;18.90;99.90
13245;DHT22;6689;53.400;12.486;2023-08-12T00:15:52;19.00;99.90
13245;DHT22;6689;53.400;12.486;2023-08-12T00:18:19;18.90;99.90
13245;DHT22;6689;53.400;12.486;2023-08-12T00:20:47;18.80;99.90
13245;DHT22;6689;53.400;12.486;2023-08-12T00:23:14;18.90;99.90
13245;DHT22;6689;53.400;12.486;2023-08-12T00:25:42;18.80;99.90
13245;DHT22;6689;53.400;12.486;2023-08-12T00:28:10;18.90;99.90
13245;DHT22;6689;53.400;12.486;2023-08-12T00:30:38;18.90;99.90
13245;DHT22;6689;53.400;12.486;2023-08-12T00:33:07;18.80;99.90
13245;DHT22;6689;53.400;12.486;2023-08-12T00:35:34;18.70;99.90
13245;DHT22;6689;53.400;12.486;2023-08-12T00:38:02;18.70;99.90
13245;DHT22;6689;53.400;12.486;2023-08-12T00:40:29;18.70;99.90
13245;DHT22;6689;53.400;12.486;2023-08-12T00:42:56;18.80;99.90
13245;DHT22;6689;53.400;12.486;2023-08-12T00:45:25;18.70;99.90
13245;DHT22;6689;53.400;12.486;2023-08-12T00:47:53;18.70;99.90
13245;DHT22;6689;53.400;12.486;2023-08-12T00:50:22;18.70;99.90
13245;DHT22;6689;53.400;12.486;2023-08-12T00:52:52;18.60;99.90
13245;DHT22;6689;53.400;12.486;2023-08-12T00:55:19;18.60;99.90
13245;DHT22;6689;53.400;12.486;2023-08-12T00:57:47;18.60;99.90
13245;DHT22;6689;53.400;12.486;2023-08-12T01:00:16;18.60;99.90
13245;DHT22;6689;53.400;12.486;2023-08-12T01:02:46;18.60;99.90
13245;DHT22;6689;53.400;12.486;2023-08-12T01:05:15;18.60;99.90
13245;DHT22;6689;53.400;12.486;2023-08-12T01:07:44;18.60;99.90
13245;DHT22;6689;53.400;12.486;2023-08-12T01:10:12;18.60;99.90
13245;DHT22;6689;53.400;12.486;2023-08-12T01:12:47;18.60;99.90
13245;DHT22;6689;53.400;12.486;2023-08-12T01:15:21;18.50;99.90
13245;DHT22;6689;53.400;12.486;2023-08-12T01:17:50;18.50;99.90
13245;DHT22;6689;53.400;12.486;2023-08-12T01:20:20;18.50;99.90
13245;DHT22;6689;53.400;12.486;2023-08-12T01:22:56;18.50;99.90
13245;DHT22;6689;53.400;12.486;2023-08-12T01:25:26;18.50;99.90
13245;DHT22;6689;53.400;12.486;2023-08-12T01:27:53;18.40;99.90
13245;DHT22;6689;53.400;12.486;2023-08-12T01:30:23;18.50;99.90
13245;DHT22;6689;53.400;12.486;2023-08-12T01:32:55;18.40;99.90
13245;DHT22;6689;53.400;12.486;2023-08-12T01:35:32;18.50;99.90
13245;DHT22;6689;53.400;12.486;2023-08-12T01:38:02;18.40;99.90
13245;DHT22;6689;53.400;12.486;2023-08-12T01:40:33;18.40;99.90
13245;DHT22;6689;53.400;12.486;2023-08-12T01:43:03;18.40;99.90
13245;DHT22;6689;53.400;12.486;2023-08-12T01:45:32;18.40;99.90
13245;DHT22;6689;53.400;12.486;2023-08-12T01:48:00;18.40;99.90
13245;DHT22;6689;53.400;12.486;2023-08-12T01:50:28;18.40;99.90
13245;DHT22;6689;53.400;12.486;2023-08-12T01:52:55;18.40;99.90
13245;DHT22;6689;53.400;12.486;2023-08-12T01:55:23;18.40;99.90
13245;DHT22;6689;53.400;12.486;2023-08-12T01:57:54;18.40;99.90
13245;DHT22;6689;53.400;12.486;2023-08-12T02:00:21;18.40;99.90
13245;DHT22;6689;53.400;12.486;2023-08-12T02:02:49;18.40;99.90
13245;DHT22;6689;53.400;12.486;2023-08-12T02:05:17;18.30;99.90
13245;DHT22;6689;53.400;12.486;2023-08-12T02:07:44;18.40;99.90
13245;DHT22;6689;53.400;12.486;2023-08-12T02:10:12;18.30;99.90
13245;DHT22;6689;53.400;12.486;2023-08-12T02:12:40;18.40;99.90
13245;DHT22;6689;53.400;12.486;2023-08-12T02:15:09;18.30;99.90
13245;DHT22;6689;53.400;12.486;2023-08-12T02:17:37;18.30;99.90
13245;DHT22;6689;53.400;12.486;2023-08-12T02:20:05;18.30;99.90
13245;DHT22;6689;53.400;12.486;2023-08-12T02:22:33;18.30;99.90
13245;DHT22;6689;53.400;12.486;2023-08-12T02:25:01;18.40;99.90
13245;DHT22;6689;53.400;12.486;2023-08-12T02:27:29;18.40;99.90
13245;DHT22;6689;53.400;12.486;2023-08-12T02:29:56;18.40;99.90
13245;DHT22;6689;53.400;12.486;2023-08-12T02:32:25;18.40;99.90
13245;DHT22;6689;53.400;12.486;2023-08-12T02:34:52;18.40;99.90
13245;DHT22;6689;53.400;12.486;2023-08-12T02:37:19;18.30;99.90
13245;DHT22;6689;53.400;12.486;2023-08-12T02:39:47;18.40;99.90
13245;DHT22;6689;53.400;12.486;2023-08-12T02:42:14;18.40;99.90
13245;DHT22;6689;53.400;12.486;2023-08-12T02:44:43;18.30;99.90
13245;DHT22;6689;53.400;12.486;2023-08-12T02:47:10;18.30;99.90
13245;DHT22;6689;53.400;12.486;2023-08-12T02:49:39;18.30;99.90
13245;DHT22;6689;53.400;12.486;2023-08-12T02:52:07;18.30;99.90
13245;DHT22;6689;53.400;12.486;2023-08-12T02:54:35;18.30;99.90
13245;DHT22;6689;53.400;12.486;2023-08-12T02:57:03;18.30;99.90
13245;DHT22;6689;53.400;12.486;2023-08-12T02:59:30;18.30;99.90
13245;DHT22;6689;53.400;12.486;2023-08-12T03:01:58;18.30;99.90
13245;DHT22;6689;53.400;12.486;2023-08-12T03:04:25;18.30;99.90
13245;DHT22;6689;53.400;12.486;2023-08-12T03:07:03;18.30;99.90
13245;DHT22;6689;53.400;12.486;2023-08-12T03:09:30;18.30;99.90
13245;DHT22;6689;53.400;12.486;2023-08-12T03:11:57;18.30;99.90
13245;DHT22;6689;53.400;12.486;2023-08-12T03:14:28;18.30;99.90
13245;DHT22;6689;53.400;12.486;2023-08-12T03:16:56;18.30;99.90
13245;DHT22;6689;53.400;12.486;2023-08-12T03:19:23;18.30;99.90
13245;DHT22;6689;53.400;12.486;2023-08-12T03:21:50;18.30;99.90
13245;DHT22;6689;53.400;12.486;2023-08-12T03:24:19;18.20;99.90
13245;DHT22;6689;53.400;12.486;2023-08-12T03:26:47;18.20;99.90
13245;DHT22;6689;53.400;12.486;2023-08-12T03:29:14;18.20;99.90
13245;DHT22;6689;53.400;12.486;2023-08-12T03:31:42;18.10;99.90
13245;DHT22;6689;53.400;12.486;2023-08-12T03:34:10;18.10;99.90
13245;DHT22;6689;53.400;12.486;2023-08-12T03:36:40;18.10;99.90
13245;DHT22;6689;53.400;12.486;2023-08-12T03:39:08;18.10;99.90
13245;DHT22;6689;53.400;12.486;2023-08-12T03:41:37;18.10;99.90
13245;DHT22;6689;53.400;12.486;2023-08-12T03:44:04;18.10;99.90
13245;DHT22;6689;53.400;12.486;2023-08-12T03:46:32;18.10;99.90
13245;DHT22;6689;53.400;12.486;2023-08-12T03:48:59;18.10;99.90
13245;DHT22;6689;53.400;12.486;2023-08-12T03:51:26;18.10;99.90
13245;DHT22;6689;53.400;12.486;2023-08-12T03:53:53;18.10;99.90
13245;DHT22;6689;53.400;12.486;2023-08-12T03:56:21;18.10;99.90
13245;DHT22;6689;53.400;12.486;2023-08-12T03:58:50;18.10;99.90
13245;DHT22;6689;53.400;12.486;2023-08-12T04:01:20;18.10;99.90
13245;DHT22;6689;53.400;12.486;2023-08-12T04:03:47;18.10;99.90
13245;DHT22;6689;53.400;12.486;2023-08-12T04:06:15;18.00;1.40
13245;DHT22;6689;53.400;12.486;2023-08-12T04:08:42;18.10;1.40
13245;DHT22;6689;53.400;12.486;2023-08-12T04:11:10;18.10;99.90
13245;DHT22;6689;53.400;12.486;2023-08-12T04:13:37;18.00;1.00
13245;DHT22;6689;53.400;12.486;2023-08-12T04:16:06;18.10;99.90
13245;DHT22;6689;53.400;12.486;2023-08-12T04:18:33;18.10;99.90
13245;DHT22;6689;53.400;12.486;2023-08-12T04:21:00;18.10;1.40
13245;DHT22;6689;53.400;12.486;2023-08-12T04:23:28;18.10;1.40
13245;DHT22;6689;53.400;12.486;2023-08-12T04:25:55;18.10;1.00
13245;DHT22;6689;53.400;12.486;2023-08-12T04:28:22;18.10;1.00
13245;DHT22;6689;53.400;12.486;2023-08-12T04:30:50;18.10;1.00
13245;DHT22;6689;53.400;12.486;2023-08-12T04:33:19;18.10;1.00
13245;DHT22;6689;53.400;12.486;2023-08-12T04:35:47;18.20;1.00
13245;DHT22;6689;53.400;12.486;2023-08-12T04:38:14;18.20;1.00
13245;DHT22;6689;53.400;12.486;2023-08-12T04:40:44;18.20;1.00
13245;DHT22;6689;53.400;12.486;2023-08-12T04:43:11;18.20;1.00
13245;DHT22;6689;53.400;12.486;2023-08-12T04:45:39;18.20;1.00
13245;DHT22;6689;53.400;12.486;2023-08-12T04:48:06;18.20;1.00
13245;DHT22;6689;53.400;12.486;2023-08-12T04:50:37;18.20;1.00
13245;DHT22;6689;53.400;12.486;2023-08-12T04:53:05;18.30;1.00
13245;DHT22;6689;53.400;12.486;2023-08-12T04:55:33;18.30;1.40
13245;DHT22;6689;53.400;12.486;2023-08-12T04:58:01;18.30;1.00
13245;DHT22;6689;53.400;12.486;2023-08-12T05:00:28;18.40;1.00
13245;DHT22;6689;53.400;12.486;2023-08-12T05:02:55;18.40;1.00
13245;DHT22;6689;53.400;12.486;2023-08-12T05:05:22;18.50;1.00
13245;DHT22;6689;53.400;12.486;2023-08-12T05:07:51;18.60;1.00
13245;DHT22;6689;53.400;12.486;2023-08-12T05:10:19;18.80;1.00
13245;DHT22;6689;53.400;12.486;2023-08-12T05:12:46;19.00;1.00
13245;DHT22;6689;53.400;12.486;2023-08-12T05:15:16;19.10;1.00
13245;DHT22;6689;53.400;12.486;2023-08-12T05:17:44;19.40;1.00
13245;DHT22;6689;53.400;12.486;2023-08-12T05:20:12;19.60;99.90
13245;DHT22;6689;53.400;12.486;2023-08-12T05:22:40;19.70;99.90
13245;DHT22;6689;53.400;12.486;2023-08-12T05:25:09;19.70;99.90
13245;DHT22;6689;53.400;12.486;2023-08-12T05:27:36;19.80;99.90
13245;DHT22;6689;53.400;12.486;2023-08-12T05:30:07;19.80;99.90
13245;DHT22;6689;53.400;12.486;2023-08-12T05:32:35;19.80;99.90
13245;DHT22;6689;53.400;12.486;2023-08-12T05:35:03;19.80;99.90
13245;DHT22;6689;53.400;12.486;2023-08-12T05:37:31;19.80;99.90
13245;DHT22;6689;53.400;12.486;2023-08-12T05:39:58;19.80;99.90
13245;DHT22;6689;53.400;12.486;2023-08-12T05:42:27;19.80;99.90
13245;DHT22;6689;53.400;12.486;2023-08-12T05:44:55;19.80;99.90
13245;DHT22;6689;53.400;12.486;2023-08-12T05:47:22;20.00;99.90
13245;DHT22;6689;53.400;12.486;2023-08-12T05:49:50;20.00;99.90
13245;DHT22;6689;53.400;12.486;2023-08-12T05:52:17;20.10;99.90
13245;DHT22;6689;53.400;12.486;2023-08-12T05:54:44;20.30;99.90
13245;DHT22;6689;53.400;12.486;2023-08-12T05:57:12;20.40;99.90
13245;DHT22;6689;53.400;12.486;2023-08-12T05:59:40;20.50;99.90
13245;DHT22;6689;53.400;12.486;2023-08-12T06:02:08;20.60;99.90
13245;DHT22;6689;53.400;12.486;2023-08-12T06:04:36;20.60;99.90
13245;DHT22;6689;53.400;12.486;2023-08-12T06:07:03;20.70;99.90
13245;DHT22;6689;53.400;12.486;2023-08-12T06:09:31;20.80;99.90
13245;DHT22;6689;53.400;12.486;2023-08-12T06:11:58;20.90;99.90
13245;DHT22;6689;53.400;12.486;2023-08-12T06:14:26;21.00;99.90
13245;DHT22;6689;53.400;12.486;2023-08-12T06:16:54;21.10;99.90
13245;DHT22;6689;53.400;12.486;2023-08-12T06:19:21;21.30;99.90
13245;DHT22;6689;53.400;12.486;2023-08-12T06:21:49;21.60;99.90
13245;DHT22;6689;53.400;12.486;2023-08-12T06:24:16;21.80;99.90
13245;DHT22;6689;53.400;12.486;2023-08-12T06:26:43;22.00;99.90
13245;DHT22;6689;53.400;12.486;2023-08-12T06:29:11;22.00;99.90
13245;DHT22;6689;53.400;12.486;2023-08-12T06:31:38;22.00;99.90
13245;DHT22;6689;53.400;12.486;2023-08-12T06:34:07;22.10;99.90
13245;DHT22;6689;53.400;12.486;2023-08-12T06:36:36;22.20;99.90
13245;DHT22;6689;53.400;12.486;2023-08-12T06:39:03;22.40;99.90
13245;DHT22;6689;53.400;12.486;2023-08-12T06:41:31;22.60;99.90
13245;DHT22;6689;53.400;12.486;2023-08-12T06:44:00;22.60;99.90
13245;DHT22;6689;53.400;12.486;2023-08-12T06:46:29;22.80;99.90
13245;DHT22;6689;53.400;12.486;2023-08-12T06:48:58;23.00;99.90
13245;DHT22;6689;53.400;12.486;2023-08-12T06:51:28;23.20;99.90
13245;DHT22;6689;53.400;12.486;2023-08-12T06:53:55;23.40;99.90
13245;DHT22;6689;53.400;12.486;2023-08-12T06:56:22;23.50;99.90
13245;DHT22;6689;53.400;12.486;2023-08-12T06:58:50;23.50;99.90
13245;DHT22;6689;53.400;12.486;2023-08-12T07:01:19;23.40;99.90
13245;DHT22;6689;53.400;12.486;2023-08-12T07:03:46;23.40;99.90
13245;DHT22;6689;53.400;12.486;2023-08-12T07:06:13;23.30;99.90
13245;DHT22;6689;53.400;12.486;2023-08-12T07:08:42;23.60;99.90
13245;DHT22;6689;53.400;12.486;2023-08-12T07:11:09;23.70;99.90
13245;DHT22;6689;53.400;12.486;2023-08-12T07:13:36;23.70;99.90
13245;DHT22;6689;53.400;12.486;2023-08-12T07:16:04;23.70;99.90
13245;DHT22;6689;53.400;12.486;2023-08-12T07:18:31;23.80;99.90
13245;DHT22;6689;53.400;12.486;2023-08-12T07:20:58;23.80;99.90
13245;DHT22;6689;53.400;12.486;2023-08-12T07:23:29;23.80;99.90
13245;DHT22;6689;53.400;12.486;2023-08-12T07:25:57;23.90;99.90
13245;DHT22;6689;53.400;12.486;2023-08-12T07:28:25;24.00;99.90
13245;DHT22;6689;53.400;12.486;2023-08-12T07:30:53;24.10;99.90
13245;DHT22;6689;53.400;12.486;2023-08-12T07:33:20;24.10;99.90
13245;DHT22;6689;53.400;12.486;2023-08-12T07:35:48;24.10;99.90
13245;DHT22;6689;53.400;12.486;2023-08-12T07:38:15;24.10;99.90
13245;DHT22;6689;53.400;12.486;2023-08-12T07:40:42;24.00;99.90
13245;DHT22;6689;53.400;12.486;2023-08-12T07:43:11;24.00;99.90
13245;DHT22;6689;53.400;12.486;2023-08-12T07:45:38;24.00;99.90
13245;DHT22;6689;53.400;12.486;2023-08-12T07:48:08;24.00;99.90
13245;DHT22;6689;53.400;12.486;2023-08-12T07:50:35;24.00;99.90
13245;DHT22;6689;53.400;12.486;2023-08-12T07:53:03;24.00;99.90
13245;DHT22;6689;53.400;12.486;2023-08-12T07:55:31;23.90;99.90
13245;DHT22;6689;53.400;12.486;2023-08-12T07:57:59;23.90;99.90
13245;DHT22;6689;53.400;12.486;2023-08-12T08:00:28;23.90;99.90
13245;DHT22;6689;53.400;12.486;2023-08-12T08:02:56;23.90;99.90
13245;DHT22;6689;53.400;12.486;2023-08-12T08:05:26;23.90;99.90
13245;DHT22;6689;53.400;12.486;2023-08-12T08:07:53;23.90;99.90
13245;DHT22;6689;53.400;12.486;2023-08-12T08:10:21;23.90;99.90
13245;DHT22;6689;53.400;12.486;2023-08-12T08:12:49;23.90;99.90
13245;DHT22;6689;53.400;12.486;2023-08-12T08:15:16;24.00;99.90
13245;DHT22;6689;53.400;12.486;2023-08-12T08:17:44;24.00;99.90
13245;DHT22;6689;53.400;12.486;2023-08-12T08:20:12;24.00;99.90
13245;DHT22;6689;53.400;12.486;2023-08-12T08:22:42;24.00;99.90
13245;DHT22;6689;53.400;12.486;2023-08-12T08:25:10;24.00;99.90
13245;DHT22;6689;53.400;12.486;2023-08-12T08:27:37;24.00;99.90
13245;DHT22;6689;53.400;12.486;2023-08-12T08:30:05;23.90;99.90
13245;DHT22;6689;53.400;12.486;2023-08-12T08:32:34;23.90;99.90
13245;DHT22;6689;53.400;12.486;2023-08-12T08:35:05;23.90;99.90
13245;DHT22;6689;53.400;12.486;2023-08-12T08:37:33;23.90;99.90
13245;DHT22;6689;53.400;12.486;2023-08-12T08:40:00;23.90;99.90
13245;DHT22;6689;53.400;12.486;2023-08-12T08:42:29;23.90;99.90
13245;DHT22;6689;53.400;12.486;2023-08-12T08:44:59;23.90;99.90
13245;DHT22;6689;53.400;12.486;2023-08-12T08:47:27;23.90;99.90
13245;DHT22;6689;53.400;12.486;2023-08-12T08:49:55;24.00;99.90
13245;DHT22;6689;53.400;12.486;2023-08-12T08:52:26;24.00;99.90
13245;DHT22;6689;53.400;12.486;2023-08-12T08:54:53;24.10;99.90
13245;DHT22;6689;53.400;12.486;2023-08-12T08:57:20;24.10;99.90
13245;DHT22;6689;53.400;12.486;2023-08-12T08:59:48;24.10;99.90
13245;DHT22;6689;53.400;12.486;2023-08-12T09:02:17;24.10;99.90
13245;DHT22;6689;53.400;12.486;2023-08-12T09:04:47;24.20;99.90
13245;DHT22;6689;53.400;12.486;2023-08-12T09:07:14;24.20;99.90
13245;DHT22;6689;53.400;12.486;2023-08-12T09:09:45;24.20;99.90
13245;DHT22;6689;53.400;12.486;2023-08-12T09:12:16;24.20;99.90
13245;DHT22;6689;53.400;12.486;2023-08-12T09:14:44;24.40;99.90
13245;DHT22;6689;53.400;12.486;2023-08-12T09:17:11;24.50;99.90
13245;DHT22;6689;53.400;12.486;2023-08-12T09:19:39;24.60;99.90
13245;DHT22;6689;53.400;12.486;2023-08-12T09:22:07;24.60;99.90
13245;DHT22;6689;53.400;12.486;2023-08-12T09:24:36;24.70;99.90
13245;DHT22;6689;53.400;12.486;2023-08-12T09:27:09;24.80;99.90
13245;DHT22;6689;53.400;12.486;2023-08-12T09:29:36;24.80;99.90
13245;DHT22;6689;53.400;12.486;2023-08-12T09:32:10;24.80;99.90
13245;DHT22;6689;53.400;12.486;2023-08-12T09:34:37;24.80;99.90
13245;DHT22;6689;53.400;12.486;2023-08-12T09:37:05;24.80;99.90
13245;DHT22;6689;53.400;12.486;2023-08-12T09:39:33;24.80;99.90
13245;DHT22;6689;53.400;12.486;2023-08-12T09:42:02;24.80;99.90
13245;DHT22;6689;53.400;12.486;2023-08-12T09:44:34;24.80;99.90
13245;DHT22;6689;53.400;12.486;2023-08-12T09:47:02;24.90;99.90
13245;DHT22;6689;53.400;12.486;2023-08-12T09:49:30;24.90;99.90
13245;DHT22;6689;53.400;12.486;2023-08-12T09:51:58;24.90;99.90
13245;DHT22;6689;53.400;12.486;2023-08-12T09:54:26;25.00;99.90
13245;DHT22;6689;53.400;12.486;2023-08-12T09:56:57;24.90;99.90
13245;DHT22;6689;53.400;12.486;2023-08-12T09:59:31;25.00;99.90
13245;DHT22;6689;53.400;12.486;2023-08-12T10:02:00;24.90;99.90
13245;DHT22;6689;53.400;12.486;2023-08-12T10:04:35;24.90;99.90
13245;DHT22;6689;53.400;12.486;2023-08-12T10:07:05;25.00;99.90
13245;DHT22;6689;53.400;12.486;2023-08-12T10:09:34;24.90;99.90
13245;DHT22;6689;53.400;12.486;2023-08-12T10:12:03;24.90;99.90
13245;DHT22;6689;53.400;12.486;2023-08-12T10:14:33;24.80;99.90
13245;DHT22;6689;53.400;12.486;2023-08-12T10:17:00;24.70;99.90
13245;DHT22;6689;53.400;12.486;2023-08-12T10:19:28;24.70;99.90
13245;DHT22;6689;53.400;12.486;2023-08-12T10:21:58;24.60;99.90
13245;DHT22;6689;53.400;12.486;2023-08-12T10:24:27;24.60;99.90
13245;DHT22;6689;53.400;12.486;2023-08-12T10:26:55;24.60;99.90
13245;DHT22;6689;53.400;12.486;2023-08-12T10:29:25;24.60;99.90
13245;DHT22;6689;53.400;12.486;2023-08-12T10:31:54;24.70;99.90
13245;DHT22;6689;53.400;12.486;2023-08-12T10:34:24;24.80;99.90
13245;DHT22;6689;53.400;12.486;2023-08-12T10:36:54;24.90;99.90
13245;DHT22;6689;53.400;12.486;2023-08-12T10:39:25;25.20;99.90
13245;DHT22;6689;53.400;12.486;2023-08-12T10:41:55;25.40;99.90
13245;DHT22;6689;53.400;12.486;2023-08-12T10:44:26;25.70;99.90
13245;DHT22;6689;53.400;12.486;2023-08-12T10:46:55;25.80;99.90
13245;DHT22;6689;53.400;12.486;2023-08-12T10:49:25;25.90;99.90
13245;DHT22;6689;53.400;12.486;2023-08-12T10:51:53;25.90;99.90
13245;DHT22;6689;53.400;12.486;2023-08-12T10:54:22;26.00;99.90
13245;DHT22;6689;53.400;12.486;2023-08-12T10:57:05;26.00;99.90
13245;DHT22;6689;53.400;12.486;2023-08-12T10:59:53;26.10;99.90
13245;DHT22;6689;53.400;12.486;2023-08-12T11:02:30;26.20;99.90
13245;DHT22;6689;53.400;12.486;2023-08-12T11:05:01;26.20;99.90
13245;DHT22;6689;53.400;12.486;2023-08-12T11:07:33;26.30;99.90
13245;DHT22;6689;53.400;12.486;2023-08-12T11:10:04;26.30;99.90
13245;DHT22;6689;53.400;12.486;2023-08-12T11:12:34;26.50;99.90
13245;DHT22;6689;53.400;12.486;2023-08-12T11:15:03;26.60;99.90
13245;DHT22;6689;53.400;12.486;2023-08-12T11:17:36;26.70;99.90
13245;DHT22;6689;53.400;12.486;2023-08-12T11:20:05;26.70;99.90
13245;DHT22;6689;53.400;12.486;2023-08-12T11:22:36;26.70;99.90
13245;DHT22;6689;53.400;12.486;2023-08-12T11:25:05;26.70;99.90
13245;DHT22;6689;53.400;12.486;2023-08-12T11:27:39;26.70;99.90
13245;DHT22;6689;53.400;12.486;2023-08-12T11:30:07;26.70;99.90
13245;DHT22;6689;53.400;12.486;2023-08-12T11:32:40;26.70;99.90
13245;DHT22;6689;53.400;12.486;2023-08-12T11:35:08;26.70;99.90
13245;DHT22;6689;53.400;12.486;2023-08-12T11:37:37;26.60;99.90
13245;DHT22;6689;53.400;12.486;2023-08-12T11:40:05;26.60;99.90
13245;DHT22;6689;53.400;12.486;2023-08-12T11:42:35;26.50;99.90
13245;DHT22;6689;53.400;12.486;2023-08-12T11:45:03;26.50;99.90
13245;DHT22;6689;53.400;12.486;2023-08-12T11:47:31;26.50;99.90
13245;DHT22;6689;53.400;12.486;2023-08-12T11:50:03;26.50;99.90
13245;DHT22;6689;53.400;12.486;2023-08-12T11:52:31;26.40;99.90
13245;DHT22;6689;53.400;12.486;2023-08-12T11:54:59;26.40;99.90
13245;DHT22;6689;53.400;12.486;2023-08-12T11:57:26;26.40;99.90
13245;DHT22;6689;53.400;12.486;2023-08-12T11:59:58;26.30;99.90
13245;DHT22;6689;53.400;12.486;2023-08-12T12:02:26;26.40;99.90
13245;DHT22;6689;53.400;12.486;2023-08-12T12:04:53;26.20;99.90
13245;DHT22;6689;53.400;12.486;2023-08-12T12:07:24;26.30;99.90
13245;DHT22;6689;53.400;12.486;2023-08-12T12:09:53;26.20;99.90
13245;DHT22;6689;53.400;12.486;2023-08-12T12:12:22;26.10;99.90
13245;DHT22;6689;53.400;12.486;2023-08-12T12:14:51;26.10;99.90
13245;DHT22;6689;53.400;12.486;2023-08-12T12:17:21;26.00;99.90
13245;DHT22;6689;53.400;12.486;2023-08-12T12:19:52;25.90;99.90
13245;DHT22;6689;53.400;12.486;2023-08-12T12:22:25;25.90;99.90
13245;DHT22;6689;53.400;12.486;2023-08-12T12:24:52;25.80;99.90
13245;DHT22;6689;53.400;12.486;2023-08-12T12:27:19;25.60;99.90
13245;DHT22;6689;53.400;12.486;2023-08-12T12:29:46;25.60;99.90
13245;DHT22;6689;53.400;12.486;2023-08-12T12:32:14;25.50;99.90
13245;DHT22;6689;53.400;12.486;2023-08-12T12:34:41;25.50;99.90
13245;DHT22;6689;53.400;12.486;2023-08-12T12:37:09;25.50;99.90
13245;DHT22;6689;53.400;12.486;2023-08-12T12:39:38;25.40;99.90
13245;DHT22;6689;53.400;12.486;2023-08-12T12:42:06;25.40;99.90
13245;DHT22;6689;53.400;12.486;2023-08-12T12:44:34;25.30;99.90
13245;DHT22;6689;53.400;12.486;2023-08-12T12:47:02;25.30;99.90
13245;DHT22;6689;53.400;12.486;2023-08-12T12:49:29;25.20;99.90
13245;DHT22;6689;53.400;12.486;2023-08-12T12:51:57;25.20;99.90
13245;DHT22;6689;53.400;12.486;2023-08-12T12:54:24;25.10;99.90
13245;DHT22;6689;53.400;12.486;2023-08-12T12:56:59;25.10;99.90
13245;DHT22;6689;53.400;12.486;2023-08-12T12:59:27;25.20;99.90
13245;DHT22;6689;53.400;12.486;2023-08-12T13:01:54;25.10;99.90
13245;DHT22;6689;53.400;12.486;2023-08-12T13:04:23;25.20;99.90
13245;DHT22;6689;53.400;12.486;2023-08-12T13:06:50;25.30;99.90
13245;DHT22;6689;53.400;12.486;2023-08-12T13:09:19;25.30;99.90
13245;DHT22;6689;53.400;12.486;2023-08-12T13:11:46;25.30;99.90
13245;DHT22;6689;53.400;12.486;2023-08-12T13:14:15;25.30;99.90
13245;DHT22;6689;53.400;12.486;2023-08-12T13:16:46;25.30;99.90
13245;DHT22;6689;53.400;12.486;2023-08-12T13:19:13;25.20;99.90
13245;DHT22;6689;53.400;12.486;2023-08-12T13:21:40;25.10;99.90
13245;DHT22;6689;53.400;12.486;2023-08-12T13:24:09;25.00;99.90
13245;DHT22;6689;53.400;12.486;2023-08-12T13:26:37;25.00;99.90
13245;DHT22;6689;53.400;12.486;2023-08-12T13:29:04;25.00;99.90
13245;DHT22;6689;53.400;12.486;2023-08-12T13:31:33;24.90;99.90
13245;DHT22;6689;53.400;12.486;2023-08-12T13:34:01;24.80;99.90
13245;DHT22;6689;53.400;12.486;2023-08-12T13:36:28;24.80;99.90
13245;DHT22;6689;53.400;12.486;2023-08-12T13:38:56;24.80;99.90
13245;DHT22;6689;53.400;12.486;2023-08-12T13:41:26;24.70;99.90
13245;DHT22;6689;53.400;12.486;2023-08-12T13:43:54;24.70;99.90
13245;DHT22;6689;53.400;12.486;2023-08-12T13:46:21;24.70;99.90
13245;DHT22;6689;53.400;12.486;2023-08-12T13:48:50;24.70;99.90
13245;DHT22;6689;53.400;12.486;2023-08-12T13:51:17;24.60;99.90
13245;DHT22;6689;53.400;12.486;2023-08-12T13:53:44;24.60;99.90
13245;DHT22;6689;53.400;12.486;2023-08-12T13:56:11;24.70;99.90
13245;DHT22;6689;53.400;12.486;2023-08-12T13:58:39;24.80;99.90
13245;DHT22;6689;53.400;12.486;2023-08-12T14:01:07;25.00;99.90
13245;DHT22;6689;53.400;12.486;2023-08-12T14:03:34;25.20;99.90
13245;DHT22;6689;53.400;12.486;2023-08-12T14:06:04;25.50;99.90
13245;DHT22;6689;53.400;12.486;2023-08-12T14:08:31;25.60;99.90
13245;DHT22;6689;53.400;12.486;2023-08-12T14:11:00;25.80;99.90
13245;DHT22;6689;53.400;12.486;2023-08-12T14:13:28;25.90;99.90
13245;DHT22;6689;53.400;12.486;2023-08-12T14:15:55;25.90;99.90
13245;DHT22;6689;53.400;12.486;2023-08-12T14:18:23;26.00;99.90
13245;DHT22;6689;53.400;12.486;2023-08-12T14:20:51;26.20;99.90
13245;DHT22;6689;53.400;12.486;2023-08-12T14:23:19;26.20;99.90
13245;DHT22;6689;53.400;12.486;2023-08-12T14:25:47;26.20;99.90
13245;DHT22;6689;53.400;12.486;2023-08-12T14:28:15;26.30;99.90
13245;DHT22;6689;53.400;12.486;2023-08-12T14:30:43;26.30;99.90
13245;DHT22;6689;53.400;12.486;2023-08-12T14:33:10;26.40;99.90
13245;DHT22;6689;53.400;12.486;2023-08-12T14:35:38;26.50;99.90
13245;DHT22;6689;53.400;12.486;2023-08-12T14:38:05;26.50;99.90
13245;DHT22;6689;53.400;12.486;2023-08-12T14:40:34;26.70;99.90
13245;DHT22;6689;53.400;12.486;2023-08-12T14:43:03;26.80;99.90
13245;DHT22;6689;53.400;12.486;2023-08-12T14:45:30;26.70;99.90
13245;DHT22;6689;53.400;12.486;2023-08-12T14:47:57;26.60;99.90
13245;DHT22;6689;53.400;12.486;2023-08-12T14:50:25;26.60;99.90
13245;DHT22;6689;53.400;12.486;2023-08-12T14:52:52;26.70;99.90
13245;DHT22;6689;53.400;12.486;2023-08-12T14:55:19;26.60;99.90
13245;DHT22;6689;53.400;12.486;2023-08-12T14:57:50;26.50;99.90
13245;DHT22;6689;53.400;12.486;2023-08-12T15:00:18;26.50;99.90
13245;DHT22;6689;53.400;12.486;2023-08-12T15:02:45;26.50;99.90
13245;DHT22;6689;53.400;12.486;2023-08-12T15:05:13;26.40;99.90
13245;DHT22;6689;53.400;12.486;2023-08-12T15:07:41;26.50;99.90
13245;DHT22;6689;53.400;12.486;2023-08-12T15:10:11;26.50;99.90
13245;DHT22;6689;53.400;12.486;2023-08-12T15:12:38;26.50;99.90
13245;DHT22;6689;53.400;12.486;2023-08-12T15:15:08;26.60;99.90
13245;DHT22;6689;53.400;12.486;2023-08-12T15:17:36;26.70;99.90
13245;DHT22;6689;53.400;12.486;2023-08-12T15:20:04;26.70;99.90
13245;DHT22;6689;53.400;12.486;2023-08-12T15:22:32;26.60;99.90
13245;DHT22;6689;53.400;12.486;2023-08-12T15:25:00;26.50;99.90
13245;DHT22;6689;53.400;12.486;2023-08-12T15:27:27;26.40;99.90
13245;DHT22;6689;53.400;12.486;2023-08-12T15:29:56;26.30;99.90
13245;DHT22;6689;53.400;12.486;2023-08-12T15:32:25;26.30;99.90
13245;DHT22;6689;53.400;12.486;2023-08-12T15:34:53;26.20;99.90
13245;DHT22;6689;53.400;12.486;2023-08-12T15:37:20;26.20;99.90
13245;DHT22;6689;53.400;12.486;2023-08-12T15:39:48;26.20;99.90